Time;durP1;ratioP1;P1;durP2;ratioP2;P2;SDS_P1;SDS_P2;PMS_P1;PMS_P2;Temp;Humidity;BMP_temperature;BMP_pressure;BME280_temperature;BME280_humidity;BME280_pressure;Samples;Min_cycle;Max_cycle;Signal;HPM_P1;HPM_P2
2022/02/02 00:00:54;;;;;;;6.50;3.00;;;;;;;7.01;78.91;99652.28;1087999;54;20071;-77
2022/02/02 00:02:06;;;;;;;5.28;2.72;;;;;;;7.08;78.50;99654.44;1088048;54;20098;-79
2022/02/02 00:03:11;;;;;;;6.00;2.97;;;;;;;6.98;78.52;99663.22;1087590;54;20042;-77
2022/02/02 00:04:20;;;;;;;5.30;3.25;;;;;;;7.05;78.53;99658.19;1087937;54;20015;-76
2022/02/02 00:05:27;;;;;;;6.53;3.83;;;;;;;7.04;78.33;99656.50;1093477;39;20702;-76
2022/02/02 00:06:37;;;;;;;6.57;3.20;;;;;;;7.01;78.54;99646.97;1087947;54;20058;-76
2022/02/02 00:07:49;;;;;;;5.78;3.72;;;;;;;6.97;78.76;99666.84;1088530;46;20073;-76
2022/02/02 00:08:59;;;;;;;7.78;3.50;;;;;;;6.93;79.06;99665.41;1087890;54;21164;-76
2022/02/02 00:10:09;;;;;;;7.22;3.42;;;;;;;6.82;79.90;99662.81;1089758;39;20649;-75
2022/02/02 00:12:42;;;;;;;6.63;3.83;;;;;;;6.75;80.20;99666.97;1087528;39;20721;-76
2022/02/02 00:13:56;;;;;;;6.10;3.75;;;;;;;6.68;80.41;99667.50;1087543;54;20035;-76
2022/02/02 00:15:27;;;;;;;6.80;3.95;;;;;;;6.54;81.17;99675.75;1087445;54;20042;-76
2022/02/02 00:16:47;;;;;;;6.45;3.45;;;;;;;6.46;81.63;99678.22;1088362;46;20056;-76
2022/02/02 00:18:12;;;;;;;5.05;3.58;;;;;;;6.41;81.92;99683.91;1087828;54;20054;-76
2022/02/02 00:19:22;;;;;;;7.78;3.65;;;;;;;6.38;82.29;99677.03;1087504;54;20031;-77
2022/02/02 00:20:31;;;;;;;5.90;3.83;;;;;;;6.36;82.80;99681.63;1087911;54;20058;-77
2022/02/02 00:21:42;;;;;;;6.25;3.85;;;;;;;6.40;82.58;99680.41;1087855;54;20742;-77
2022/02/02 00:22:49;;;;;;;7.05;3.53;;;;;;;6.45;82.28;99681.81;1091549;39;20605;-77
2022/02/02 00:23:56;;;;;;;6.78;4.63;;;;;;;6.35;83.04;99693.22;1087848;54;20014;-76
2022/02/02 00:25:09;;;;;;;6.05;4.10;;;;;;;6.46;82.71;99699.44;1087847;54;20035;-76
2022/02/02 00:26:18;;;;;;;7.63;4.18;;;;;;;6.44;82.54;99688.97;1087851;54;20041;-77
2022/02/02 00:27:22;;;;;;;5.00;3.80;;;;;;;6.57;82.08;99680.81;1087819;54;20345;-75
2022/02/02 00:28:34;;;;;;;9.18;4.18;;;;;;;6.42;83.13;99677.63;1087803;54;20037;-76
2022/02/02 00:29:40;;;;;;;8.88;4.20;;;;;;;6.32;83.66;99672.25;1087859;54;20038;-77
2022/02/02 00:30:44;;;;;;;8.73;4.40;;;;;;;6.23;83.87;99673.84;1087785;54;20046;-77
2022/02/02 00:31:51;;;;;;;6.43;3.83;;;;;;;6.45;83.15;99676.53;1087916;54;20149;-76
2022/02/02 00:33:13;;;;;;;6.85;3.85;;;;;;;6.47;83.06;99664.78;1087860;54;20034;-76
2022/02/02 00:34:19;;;;;;;7.05;3.85;;;;;;;6.29;83.79;99672.50;1087795;54;20058;-77
2022/02/02 00:35:29;;;;;;;9.07;4.15;;;;;;;6.36;83.78;99663.03;1087683;54;20030;-77
2022/02/02 00:36:37;;;;;;;8.32;4.30;;;;;;;6.28;84.20;99654.88;1087976;54;20057;-77
2022/02/02 00:37:41;;;;;;;8.02;4.63;;;;;;;6.29;84.14;99645.94;1087921;54;20035;-77
2022/02/02 00:38:44;;;;;;;11.10;4.47;;;;;;;6.20;84.65;99658.16;1087907;54;20042;-77
2022/02/02 00:39:48;;;;;;;8.30;4.63;;;;;;;6.33;84.50;99655.31;1089463;39;20653;-77
2022/02/02 00:40:50;;;;;;;6.20;4.07;;;;;;;6.32;84.16;99676.69;1090989;39;20661;-76
2022/02/02 00:41:56;;;;;;;8.10;4.38;;;;;;;6.24;84.38;99677.31;1087894;54;20029;-75
2022/02/02 00:42:57;;;;;;;7.75;4.60;;;;;;;6.38;83.75;99669.06;1087927;54;20059;-75
2022/02/02 00:44:04;;;;;;;7.68;4.50;;;;;;;6.29;83.86;99680.44;1087830;54;20030;-75
2022/02/02 00:45:08;;;;;;;6.88;4.50;;;;;;;6.24;84.21;99674.66;1087872;54;20030;-76
2022/02/02 00:46:12;;;;;;;7.13;4.22;;;;;;;6.31;84.14;99677.66;1087792;54;20868;-76
2022/02/02 00:47:20;;;;;;;8.40;4.95;;;;;;;6.36;83.43;99678.13;1087847;54;20116;-75
2022/02/02 00:48:26;;;;;;;8.82;4.65;;;;;;;6.34;83.87;99680.91;1087895;54;20022;-75
2022/02/02 00:49:28;;;;;;;6.50;4.10;;;;;;;6.39;83.60;99672.56;1087785;54;20038;-76
2022/02/02 00:50:32;;;;;;;6.57;4.28;;;;;;;6.42;83.28;99671.47;1087748;54;20034;-75
2022/02/02 00:51:40;;;;;;;7.90;3.58;;;;;;;6.46;83.27;99662.28;1087601;54;20043;-75
2022/02/02 00:52:50;;;;;;;8.00;4.03;;;;;;;6.31;83.78;99673.22;1087874;54;20090;-75
2022/02/02 00:53:51;;;;;;;5.78;2.95;;;;;;;6.31;84.11;99682.97;1087843;54;20022;-76
2022/02/02 00:54:55;;;;;;;5.95;3.85;;;;;;;6.32;83.98;99676.69;1087894;54;20035;-76
2022/02/02 00:55:57;;;;;;;6.38;3.90;;;;;;;6.23;84.26;99683.63;1087898;54;20069;-76
2022/02/02 00:57:01;;;;;;;7.25;4.38;;;;;;;6.21;84.25;99680.25;1087870;54;20750;-75
2022/02/02 00:58:06;;;;;;;6.53;3.88;;;;;;;6.28;84.19;99685.91;1087884;54;20718;-76
2022/02/02 00:59:10;;;;;;;6.68;3.90;;;;;;;6.33;83.76;99686.34;1087864;54;20019;-75
2022/02/02 01:00:16;;;;;;;6.13;3.53;;;;;;;6.38;83.56;99687.66;1087689;54;20034;-76
2022/02/02 01:01:18;;;;;;;7.72;4.00;;;;;;;6.35;83.41;99687.91;1087857;54;20071;-76
2022/02/02 01:02:22;;;;;;;6.38;3.53;;;;;;;6.38;83.47;99689.44;1087949;54;20041;-76
2022/02/02 01:03:27;;;;;;;8.13;4.25;;;;;;;6.42;83.57;99687.41;1087887;54;20034;-76
2022/02/02 01:04:29;;;;;;;4.82;2.88;;;;;;;6.50;83.20;99682.31;1089150;46;20034;-78
2022/02/02 01:05:33;;;;;;;5.60;2.72;;;;;;;6.48;83.09;99692.22;1087942;54;20030;-76
2022/02/02 01:06:39;;;;;;;6.03;2.85;;;;;;;6.39;83.01;99686.69;1087739;54;20057;-76
2022/02/02 01:09:22;;;;;;;6.95;2.97;;;;;;;6.40;83.03;99684.88;1087633;54;20031;-76
2022/02/02 01:10:28;;;;;;;8.82;2.97;;;;;;;6.35;82.88;99682.59;1087564;54;20819;-75
2022/02/02 01:11:49;;;;;;;4.65;2.20;;;;;;;6.50;82.67;99695.59;1087581;54;20031;-77
2022/02/02 01:13:04;;;;;;;5.90;2.60;;;;;;;6.60;81.99;99687.69;1087436;54;20034;-76
2022/02/02 01:18:25;;;;;;;6.70;2.25;;;;;;;6.40;81.91;99691.03;1087393;54;21350;-75
2022/02/02 01:19:32;;;;;;;8.30;2.58;;;;;;;6.52;81.49;99683.00;1087667;39;20759;-76
2022/02/02 01:20:49;;;;;;;8.57;2.70;;;;;;;6.45;81.57;99690.66;1087588;54;20034;-75
2022/02/02 01:21:57;;;;;;;6.15;2.10;;;;;;;6.55;81.08;99686.28;1087515;54;20840;-76
2022/02/02 01:28:19;;;;;;;7.00;2.28;;;;;;;6.48;80.98;99677.09;1087584;54;20019;-76
2022/02/02 01:29:21;;;;;;;5.97;2.10;;;;;;;6.49;80.75;99670.00;1087727;46;20055;-76
2022/02/02 01:30:29;;;;;;;5.72;2.22;;;;;;;6.38;80.76;99671.72;1087507;54;20019;-77
2022/02/02 01:31:33;;;;;;;7.82;2.30;;;;;;;6.49;80.90;99667.34;1087492;54;20078;-76
2022/02/02 01:32:35;;;;;;;8.80;2.50;;;;;;;6.48;80.79;99670.97;1087620;54;20061;-76
2022/02/02 01:33:39;;;;;;;7.88;2.38;;;;;;;6.51;80.48;99676.03;1087576;54;20015;-77
2022/02/02 01:34:43;;;;;;;6.65;2.17;;;;;;;6.55;80.53;99682.75;1088565;46;20022;-77
2022/02/02 01:35:45;;;;;;;7.97;2.40;;;;;;;6.60;79.91;99683.22;1087562;54;20035;-75
2022/02/02 01:36:49;;;;;;;6.30;1.83;;;;;;;6.60;80.21;99683.22;1088028;46;20018;-76
2022/02/02 01:37:51;;;;;;;6.78;1.90;;;;;;;6.58;79.77;99676.34;1087450;54;20023;-77
2022/02/02 01:38:56;;;;;;;7.97;2.63;;;;;;;6.63;79.83;99684.78;1087310;46;20040;-77
2022/02/02 01:40:01;;;;;;;9.57;2.75;;;;;;;6.51;79.79;99682.16;1087431;54;20034;-76
2022/02/02 01:41:09;;;;;;;9.43;2.00;;;;;;;6.56;80.02;99685.28;1087469;54;20030;-77
2022/02/02 01:42:17;;;;;;;6.03;1.98;;;;;;;6.60;79.93;99690.34;1088501;46;20108;-77
2022/02/02 01:43:22;;;;;;;7.30;2.28;;;;;;;6.53;79.72;99684.69;1088334;46;20038;-77
2022/02/02 01:44:33;;;;;;;11.07;2.75;;;;;;;6.42;80.23;99698.03;1087523;54;20120;-77
2022/02/02 01:45:41;;;;;;;5.88;1.70;;;;;;;6.39;80.24;99697.31;1087549;54;20121;-76
2022/02/02 01:46:48;;;;;;;8.13;2.15;;;;;;;6.36;80.31;99702.88;1087456;54;20034;-76
2022/02/02 01:48:01;;;;;;;10.65;2.58;;;;;;;6.30;80.51;99706.03;1087534;54;20040;-76
2022/02/02 01:50:34;;;;;;;8.43;2.60;;;;;;;6.46;80.35;99702.09;1087459;54;20034;-77
2022/02/02 01:51:56;;;;;;;7.57;2.42;;;;;;;6.62;79.81;99694.53;1087358;54;20063;-77
2022/02/02 01:53:12;;;;;;;9.32;2.20;;;;;;;6.59;79.87;99696.63;1087533;54;20801;-76
2022/02/02 01:54:33;;;;;;;11.10;3.75;;;;;;;6.55;79.76;99683.63;1087427;54;20019;-76
2022/02/02 01:55:38;;;;;;;;;;;;;;;6.44;80.24;99691.63;1087426;54;20034;-77
2022/02/02 01:56:42;;;;;;;8.52;2.45;;;;;;;6.41;80.06;99689.22;1087545;54;20002;-77
2022/02/02 01:58:02;;;;;;;12.63;2.88;;;;;;;6.40;80.42;99690.19;1087376;54;20039;-76
2022/02/02 01:59:18;;;;;;;13.18;2.88;;;;;;;6.33;80.61;99679.22;1087496;54;20038;-76
2022/02/02 02:00:19;;;;;;;11.48;2.72;;;;;;;6.26;80.98;99679.88;1087463;54;20480;-77
2022/02/02 02:01:26;;;;;;;15.30;4.00;;;;;;;6.28;80.91;99680.59;1087449;54;20046;-76
2022/02/02 02:02:28;;;;;;;14.00;3.80;;;;;;;6.35;80.55;99685.25;1087497;54;20120;-75
2022/02/02 02:03:32;;;;;;;10.20;3.00;;;;;;;6.37;80.75;99691.28;1087455;54;20030;-76
2022/02/02 02:04:34;;;;;;;9.20;2.45;;;;;;;6.57;80.21;99691.44;1087796;54;20050;-76
2022/02/02 02:05:38;;;;;;;8.85;2.80;;;;;;;6.59;79.89;99688.66;1089028;46;20053;-77
2022/02/02 02:06:39;;;;;;;10.65;2.90;;;;;;;6.57;80.15;99686.13;1088825;46;20035;-76
2022/02/02 02:07:44;;;;;;;14.57;3.10;;;;;;;6.48;80.38;99679.75;1087806;54;20054;-77
2022/02/02 02:08:46;;;;;;;12.52;2.67;;;;;;;6.48;80.59;99686.91;1087738;54;20041;-76
2022/02/02 02:09:52;;;;;;;15.70;4.47;;;;;;;6.40;80.79;99699.00;1087717;47;20082;-76
2022/02/02 02:10:54;;;;;;;9.82;2.70;;;;;;;6.55;80.61;99698.69;1087366;54;20035;-76
2022/02/02 02:11:59;;;;;;;11.55;2.97;;;;;;;6.70;80.00;99707.19;1088527;46;20030;-75
2022/02/02 02:13:06;;;;;;;9.70;2.33;;;;;;;6.75;79.74;99715.63;1087804;54;20030;-76
2022/02/02 02:15:42;;;;;;;11.32;3.45;;;;;;;6.53;80.74;99705.94;1091118;39;20664;-76
2022/02/02 02:16:46;;;;;;;12.13;2.53;;;;;;;6.62;80.19;99694.53;1087475;54;20030;-75
2022/02/02 02:17:52;;;;;;;10.57;2.58;;;;;;;6.54;80.92;99697.00;1088270;46;20035;-76
2022/02/02 02:18:56;;;;;;;14.82;2.58;;;;;;;6.56;80.82;99701.22;1089069;39;20638;-77
2022/02/02 02:20:00;;;;;;;10.35;2.45;;;;;;;6.45;81.06;99698.63;1087384;54;20031;-77
2022/02/02 02:21:09;;;;;;;13.85;3.08;;;;;;;6.38;81.49;99700.94;1087477;54;20026;-76
2022/02/02 02:22:15;;;;;;;11.50;3.08;;;;;;;6.46;81.70;99696.78;1087456;54;20868;-76
2022/02/02 02:23:23;;;;;;;9.82;1.85;;;;;;;6.47;81.49;99699.31;1087506;54;20034;-77
2022/02/02 02:24:27;;;;;;;9.13;2.55;;;;;;;6.52;81.28;99699.78;1087418;54;20754;-77
2022/02/02 02:25:35;;;;;;;6.78;2.08;;;;;;;6.46;81.46;99688.81;1087423;54;20034;-76
2022/02/02 02:26:40;;;;;;;9.23;2.17;;;;;;;6.39;81.54;99705.28;1087224;54;20094;-76
2022/02/02 02:27:45;;;;;;;9.95;2.75;;;;;;;6.54;81.25;99703.16;1087301;54;20057;-76
2022/02/02 02:28:58;;;;;;;7.43;1.70;;;;;;;6.62;80.88;99702.50;1088697;46;20041;-76
2022/02/02 02:30:11;;;;;;;7.70;2.33;;;;;;;6.53;80.96;99713.91;1087537;54;20034;-76
2022/02/02 02:31:22;;;;;;;8.50;2.08;;;;;;;6.56;81.10;99711.84;1087448;54;20060;-76
2022/02/02 02:32:43;;;;;;;;;;;;;;;6.41;81.49;99707.78;1087555;54;20108;-77
2022/02/02 02:34:02;;;;;;;8.32;1.90;;;;;;;6.49;81.28;99700.03;1087470;54;20615;-77
2022/02/02 02:35:36;;;;;;;8.32;2.05;;;;;;;6.57;80.98;99710.03;1088586;39;20718;-77
2022/02/02 02:36:57;;;;;;;6.20;1.95;;;;;;;6.48;81.33;99713.44;1087387;46;20034;-76
2022/02/02 02:39:32;;;;;;;8.70;2.30;;;;;;;6.39;80.97;99694.66;1087313;54;20789;-76
2022/02/02 02:56:02;;;;;;;9.18;2.25;;;;;;;6.64;79.52;99674.00;1087503;54;20086;-75
2022/02/02 02:57:05;;;;;;;10.73;2.90;;;;;;;6.64;79.17;99667.88;1087604;54;20045;-76
2022/02/02 02:58:21;;;;;;;8.73;1.95;;;;;;;6.62;79.37;99661.84;1087488;54;20078;-75
2022/02/02 02:59:35;;;;;;;7.95;2.20;;;;;;;6.74;79.29;99678.56;1087270;54;20035;-76
2022/02/02 03:00:55;;;;;;;11.60;2.92;;;;;;;6.60;79.57;99688.53;1087090;54;20750;-78
2022/02/02 03:02:33;;;;;;;9.93;2.25;;;;;;;6.74;79.27;99683.88;1087762;54;20662;-76
2022/02/02 03:30:35;;;;;;;7.15;3.40;;;;;;;6.71;81.58;99663.72;1087722;54;20026;-76
2022/02/02 03:31:49;;;;;;;11.40;3.90;;;;;;;6.76;81.40;99668.66;1088612;47;20031;-76
2022/02/02 03:49:21;;;;;;;9.43;4.05;;;;;;;6.73;82.01;99653.81;1087635;54;20057;-77
2022/02/02 03:55:07;;;;;;;11.48;3.58;;;;;;;7.13;79.90;99673.50;1087907;54;20044;-75
2022/02/02 03:57:49;;;;;;;10.88;4.15;;;;;;;7.11;80.10;99670.13;1088098;54;20027;-77
2022/02/02 03:59:08;;;;;;;14.73;4.38;;;;;;;7.16;79.52;99675.91;1087902;54;20041;-76
2022/02/02 04:00:25;;;;;;;11.32;4.15;;;;;;;7.10;79.57;99679.91;1088079;54;20042;-76
2022/02/02 04:01:52;;;;;;;10.77;3.25;;;;;;;7.22;78.91;99682.50;1087603;54;20034;-76
2022/02/02 04:04:23;;;;;;;12.35;3.85;;;;;;;7.25;78.67;99695.50;1088242;54;20034;-77
2022/02/02 04:05:38;;;;;;;11.05;3.80;;;;;;;7.21;78.79;99692.28;1087894;54;20082;-76
2022/02/02 04:06:57;;;;;;;14.13;4.03;;;;;;;7.27;78.20;99698.88;1088307;54;20023;-76
2022/02/02 04:08:21;;;;;;;10.43;3.53;;;;;;;7.25;78.08;99706.16;1088315;54;20042;-76
2022/02/02 04:09:33;;;;;;;8.73;3.10;;;;;;;7.31;77.69;99700.31;1088371;54;20095;-76
2022/02/02 04:10:41;;;;;;;11.38;4.40;;;;;;;7.38;77.95;99705.94;1088305;54;20095;-77
2022/02/02 04:11:56;;;;;;;10.80;4.28;;;;;;;7.27;78.23;99722.81;1088253;54;20023;-75
2022/02/02 04:13:08;;;;;;;11.55;3.78;;;;;;;7.27;78.11;99721.03;1088322;54;20996;-77
2022/02/02 04:38:00;;;;;;;9.13;3.00;;;;;;;7.24;79.21;99731.03;1087670;54;20030;-76
2022/02/02 04:51:23;;;;;;;9.55;4.55;;;;;;;7.01;79.44;99726.72;1088114;54;20041;-76
2022/02/02 04:52:34;;;;;;;10.93;3.50;;;;;;;6.91;79.24;99720.50;1088020;54;20798;-76
2022/02/02 04:55:06;;;;;;;11.35;3.33;;;;;;;7.00;78.57;99748.13;1088497;46;20019;-76
2022/02/02 04:56:21;;;;;;;11.27;3.75;;;;;;;6.95;78.83;99729.91;1089478;39;20637;-76
2022/02/02 04:57:54;;;;;;;11.15;3.00;;;;;;;7.05;78.50;99727.28;1088031;54;20364;-76
2022/02/02 04:59:11;;;;;;;12.05;3.55;;;;;;;7.17;78.17;99728.09;1089173;46;20034;-76
2022/02/02 05:00:58;;;;;;;14.63;3.88;;;;;;;7.09;78.05;99725.22;1088348;54;20045;-75
2022/02/02 05:02:44;;;;;;;10.90;3.22;;;;;;;7.12;78.07;99722.31;1088028;54;20078;-75
2022/02/02 05:03:53;;;;;;;12.57;3.10;;;;;;;7.18;77.60;99738.59;1088231;54;20041;-76
2022/02/02 05:06:22;;;;;;;8.90;2.75;;;;;;;7.14;77.40;99736.31;1088288;54;20053;-76
2022/02/02 05:07:33;;;;;;;8.93;2.83;;;;;;;7.07;77.54;99736.00;1090513;46;20042;-76
2022/02/02 05:08:44;;;;;;;15.77;3.75;;;;;;;7.19;77.23;99734.09;1088191;54;20127;-75
2022/02/02 05:09:57;;;;;;;10.68;2.88;;;;;;;7.06;77.08;99730.81;1088085;54;20058;-76
2022/02/02 05:11:14;;;;;;;14.13;3.40;;;;;;;7.05;76.90;99729.13;1088333;54;20046;-74
2022/02/02 05:13:07;;;;;;;14.48;3.80;;;;;;;7.00;76.80;99726.84;1088134;54;20053;-76
2022/02/02 05:22:17;;;;;;;14.00;3.30;;;;;;;6.91;77.36;99719.66;1088299;54;20027;-76
2022/02/02 05:44:53;;;;;;;12.07;3.45;;;;;;;7.01;77.83;99787.84;1088255;54;20042;-76
2022/02/02 05:49:44;;;;;;;19.27;4.07;;;;;;;6.82;78.05;99795.66;1091625;46;20041;-76
2022/02/02 05:52:07;;;;;;;11.68;3.10;;;;;;;6.67;78.31;99788.00;1088184;54;20061;-77
2022/02/02 05:53:10;;;;;;;11.32;3.15;;;;;;;6.48;78.74;99801.09;1088207;54;20018;-75
2022/02/02 05:54:14;;;;;;;11.68;3.15;;;;;;;6.38;79.27;99801.84;1088236;54;20099;-75
2022/02/02 05:55:18;;;;;;;12.63;2.75;;;;;;;6.30;79.35;99801.59;1088208;54;20030;-76
2022/02/02 05:56:22;;;;;;;15.93;3.25;;;;;;;6.29;79.24;99809.69;1088215;54;20033;-76
2022/02/02 05:57:26;;;;;;;15.15;3.63;;;;;;;6.38;79.23;99809.78;1087866;54;20038;-77
2022/02/02 05:58:33;;;;;;;15.20;4.13;;;;;;;6.36;79.43;99814.38;1088043;54;20033;-76
2022/02/02 05:59:35;;;;;;;12.43;3.70;;;;;;;6.33;79.96;99822.59;1095342;39;20552;-76
2022/02/02 06:00:41;;;;;;;16.80;4.05;;;;;;;6.38;79.92;99817.75;1088244;54;20090;-77
2022/02/02 06:01:52;;;;;;;14.65;4.93;;;;;;;6.42;79.78;99817.53;1088296;54;20058;-77
2022/02/02 06:03:01;;;;;;;17.77;4.25;;;;;;;6.41;80.32;99814.00;1088273;54;20022;-78
2022/02/02 06:04:11;;;;;;;15.23;3.92;;;;;;;6.50;80.06;99801.81;1088075;54;20921;-78
2022/02/02 06:05:13;;;;;;;15.38;3.85;;;;;;;6.56;79.82;99809.28;1091432;39;20989;-77
2022/02/02 06:06:17;;;;;;;16.77;3.80;;;;;;;6.52;80.03;99807.81;1088261;54;20050;-76
2022/02/02 06:07:19;;;;;;;15.95;3.90;;;;;;;6.48;80.48;99814.38;1088204;54;20763;-78
2022/02/02 06:08:24;;;;;;;14.77;5.00;;;;;;;6.55;80.01;99810.25;1088088;54;20041;-77
2022/02/02 06:09:35;;;;;;;18.00;4.82;;;;;;;6.58;80.29;99810.00;1088190;54;20042;-77
2022/02/02 06:10:39;;;;;;;;;;;;;;;6.53;80.57;99813.03;1088274;54;20079;-77
2022/02/02 06:11:44;;;;;;;15.75;4.72;;;;;;;6.59;80.25;99806.38;1088000;54;20611;-78
2022/02/02 06:12:50;;;;;;;11.70;3.80;;;;;;;6.65;79.98;99818.31;1087839;54;20722;-77
2022/02/02 06:22:20;;;;;;;15.07;3.35;;;;;;;6.81;78.51;99800.16;1087243;54;20042;-80
2022/02/02 06:23:30;;;;;;;12.93;2.88;;;;;;;6.79;78.38;99801.25;1087062;54;20035;-75
2022/02/02 06:24:36;;;;;;;13.95;3.08;;;;;;;6.79;78.69;99806.56;1087376;54;20031;-75
2022/02/02 06:25:42;;;;;;;14.68;3.30;;;;;;;6.92;78.54;99801.06;1087106;54;20038;-77
2022/02/02 06:26:51;;;;;;;12.88;3.72;;;;;;;6.94;78.09;99805.28;1087367;54;20034;-77
2022/02/02 06:27:58;;;;;;;15.73;4.43;;;;;;;6.88;78.36;99808.47;1087222;54;20039;-77
2022/02/02 06:29:12;;;;;;;9.60;3.22;;;;;;;6.99;78.16;99819.03;1087340;54;20781;-75
2022/02/02 06:30:15;;;;;;;12.40;3.10;;;;;;;7.08;77.96;99822.75;1087458;54;20031;-76
2022/02/02 06:31:21;;;;;;;10.10;3.03;;;;;;;7.13;77.94;99820.53;1087120;54;20769;-77
2022/02/02 06:32:28;;;;;;;9.32;3.30;;;;;;;7.21;77.50;99829.69;1087261;54;20039;-79
2022/02/02 06:33:35;;;;;;;13.60;3.40;;;;;;;7.00;77.94;99822.53;1087278;54;20094;-78
2022/02/02 06:34:45;;;;;;;9.95;3.30;;;;;;;7.00;78.21;99818.06;1087293;54;20090;-78
2022/02/02 06:35:52;;;;;;;11.57;3.70;;;;;;;7.08;77.79;99816.59;1087335;54;20038;-78
2022/02/02 06:37:03;;;;;;;10.63;3.83;;;;;;;7.18;77.50;99828.13;1087146;54;20065;-77
2022/02/02 06:38:06;;;;;;;9.25;2.95;;;;;;;7.23;77.77;99825.94;1087164;54;20067;-79
2022/02/02 06:39:13;;;;;;;11.73;3.40;;;;;;;7.10;77.80;99826.13;1087565;54;20031;-78
2022/02/02 06:40:17;;;;;;;13.63;3.22;;;;;;;7.18;77.57;99830.78;1087481;54;20034;-78
2022/02/02 06:43:23;;;;;;;14.50;4.40;;;;;;;7.14;78.01;99838.16;1087356;54;20034;-78
2022/02/02 06:44:39;;;;;;;12.70;3.53;;;;;;;6.96;77.94;99839.69;1087425;54;20034;-77
2022/02/02 06:45:44;;;;;;;15.38;4.28;;;;;;;7.02;77.99;99840.03;1087300;54;20059;-80
2022/02/02 06:46:49;;;;;;;15.00;3.78;;;;;;;6.97;78.19;99826.31;1087524;54;20761;-79
2022/02/02 06:47:55;;;;;;;13.25;4.22;;;;;;;6.93;78.43;99827.50;1087293;54;20030;-81
2022/02/02 06:48:58;;;;;;;14.85;3.42;;;;;;;6.94;78.24;99820.41;1087726;54;20057;-80
2022/02/02 06:50:09;;;;;;;15.75;4.10;;;;;;;6.99;78.26;99823.50;1089345;39;20693;-80
2022/02/02 06:51:20;;;;;;;14.35;4.07;;;;;;;7.11;78.03;99833.13;1087486;54;20030;-78
2022/02/02 06:52:31;;;;;;;12.25;3.42;;;;;;;7.10;77.89;99842.06;1087460;54;20041;-80
2022/02/02 06:54:09;;;;;;;13.43;3.67;;;;;;;7.06;77.83;99850.44;1087337;54;20061;-80
2022/02/02 06:55:35;;;;;;;12.87;3.63;;;;;;;7.13;77.91;99859.56;1087603;54;20064;-79
2022/02/02 06:57:37;;;;;;;11.98;3.67;;;;;;;7.21;77.32;99867.75;1087654;54;20287;-78
2022/02/02 06:59:02;;;;;;;;;;;;;;;7.12;77.38;99872.03;1090677;47;20035;-79
2022/02/02 07:00:35;;;;;;;12.65;3.60;;;;;;;7.20;77.52;99858.09;1087586;54;19950;-78
2022/02/02 07:01:55;;;;;;;10.90;3.00;;;;;;;7.25;77.30;99847.94;1087542;54;20034;-78
2022/02/02 07:03:20;;;;;;;12.63;3.47;;;;;;;7.25;77.20;99858.56;1087568;54;20090;-78
2022/02/02 07:05:05;;;;;;;11.32;3.95;;;;;;;7.27;76.93;99856.63;1088713;47;20034;-77
2022/02/02 07:06:21;;;;;;;13.05;3.72;;;;;;;7.15;77.54;99873.59;1087595;54;20035;-76
2022/02/02 07:07:40;;;;;;;14.88;4.63;;;;;;;7.14;77.17;99874.56;1087616;54;20058;-77
2022/02/02 07:09:10;;;;;;;15.18;3.85;;;;;;;7.16;76.92;99875.28;1087630;54;20043;-78
2022/02/02 07:10:19;;;;;;;12.63;3.53;;;;;;;7.20;77.00;99868.72;1087159;54;20086;-79
2022/02/02 07:11:37;;;;;;;12.82;4.05;;;;;;;7.17;76.97;99867.16;1087644;54;20094;-80
2022/02/02 07:12:53;;;;;;;15.48;4.38;;;;;;;7.13;77.27;99870.22;1087568;54;20022;-79
2022/02/02 07:14:12;;;;;;;18.50;3.97;;;;;;;7.27;77.13;99880.56;1087520;54;20034;-78
2022/02/02 07:15:21;;;;;;;10.25;3.33;;;;;;;7.34;76.82;99876.41;1087439;54;20035;-78
2022/02/02 07:17:06;;;;;;;13.90;3.95;;;;;;;7.24;76.75;99864.84;1087611;54;20035;-80
2022/02/02 07:18:25;;;;;;;12.85;3.90;;;;;;;7.23;76.86;99879.13;1087692;54;20058;-80
2022/02/02 07:20:00;;;;;;;16.23;3.75;;;;;;;7.28;76.29;99887.53;1087216;54;20042;-78
2022/02/02 07:21:20;;;;;;;11.90;3.80;;;;;;;7.36;76.36;99886.09;1087179;54;20034;-78
2022/02/02 08:30:26;;;;;;;;;;;;;;;7.71;72.60;99940.81;968587;54;52203;-79
2022/02/02 08:35:22;;;;;;;16.48;3.88;;;;;;;7.84;72.30;99944.09;1088882;54;20074;-78
2022/02/02 08:36:33;;;;;;;15.00;3.70;;;;;;;7.95;72.04;99949.38;1087750;54;20138;-80
2022/02/02 08:37:37;;;;;;;15.63;4.60;;;;;;;8.00;71.67;99948.97;1087611;39;20901;-79
2022/02/02 08:39:12;;;;;;;15.15;4.68;;;;;;;7.86;71.68;99952.81;1090046;46;20093;-78
2022/02/02 08:40:26;;;;;;;16.15;4.10;;;;;;;7.91;72.22;99955.94;1087727;54;20075;-78
2022/02/02 08:41:34;;;;;;;13.45;3.88;;;;;;;7.94;72.06;99958.31;1087902;54;20087;-80
2022/02/02 08:42:39;;;;;;;16.45;5.05;;;;;;;7.83;72.06;99954.88;1087723;54;20035;-79
2022/02/02 08:43:50;;;;;;;14.23;3.75;;;;;;;7.83;71.87;99966.38;1087642;54;20046;-77
2022/02/02 08:45:13;;;;;;;13.98;3.72;;;;;;;7.83;72.19;99962.88;1087707;54;20078;-77
2022/02/02 08:46:32;;;;;;;15.30;3.70;;;;;;;7.81;71.92;99968.34;1087643;54;20034;-78
2022/02/02 08:47:49;;;;;;;17.80;4.70;;;;;;;7.84;72.12;99980.53;1089331;46;20051;-79
2022/02/02 08:48:56;;;;;;;12.15;3.45;;;;;;;7.94;71.64;99974.28;1088087;54;20658;-79
2022/02/02 08:50:02;;;;;;;17.48;3.72;;;;;;;7.83;71.86;99977.03;1087735;54;20065;-78
2022/02/02 08:51:10;;;;;;;18.13;4.32;;;;;;;7.89;72.00;99980.97;1087872;54;20040;-79
2022/02/02 08:52:14;;;;;;;13.30;3.72;;;;;;;7.92;71.81;99976.25;1087726;54;20046;-78
2022/02/02 08:53:30;;;;;;;14.55;3.83;;;;;;;8.01;71.42;99984.44;1087670;54;20038;-79
2022/02/02 08:54:44;;;;;;;9.63;3.30;;;;;;;7.95;71.66;99986.63;1087631;54;20034;-78
2022/02/02 08:56:03;;;;;;;12.68;3.60;;;;;;;7.94;71.45;99990.25;1087881;54;20019;-80
2022/02/02 08:57:28;;;;;;;13.05;3.97;;;;;;;7.96;71.61;99984.84;1087932;54;20030;-79
2022/02/02 08:58:33;;;;;;;18.17;4.78;;;;;;;7.84;72.25;99994.66;1091020;46;20023;-79
2022/02/02 08:59:48;;;;;;;14.55;4.00;;;;;;;7.91;71.84;99995.88;1090216;46;20041;-81
2022/02/02 09:00:54;;;;;;;11.43;3.05;;;;;;;8.07;71.90;99991.91;1087731;47;20031;-80
2022/02/02 09:02:05;;;;;;;17.77;3.90;;;;;;;8.02;71.98;99988.78;1087624;54;20053;-78
2022/02/02 09:05:41;;;;;;;13.32;3.70;;;;;;;8.04;72.09;99992.16;1087412;54;20027;-80
2022/02/02 09:06:46;;;;;;;16.15;3.80;;;;;;;8.10;71.82;99995.16;1087602;54;20313;-80
2022/02/02 09:07:52;;;;;;;14.30;3.85;;;;;;;7.93;72.13;99993.94;1087747;54;20030;-81
2022/02/02 09:09:07;;;;;;;12.85;3.80;;;;;;;8.14;71.95;99998.38;1087889;54;20111;-81
2022/02/02 09:10:26;;;;;;;11.55;3.38;;;;;;;8.12;72.15;100000.34;1087551;54;20034;-82
2022/02/02 09:20:13;;;;;;;13.85;3.85;;;;;;;8.13;72.01;100004.69;1091935;39;20857;-79
2022/02/02 09:24:20;;;;;;;13.88;3.50;;;;;;;8.02;72.57;100010.94;1087688;54;20055;-78
2022/02/02 09:25:24;;;;;;;14.52;4.05;;;;;;;8.09;72.15;100013.91;1087472;54;20046;-79
2022/02/02 09:32:31;;;;;;;14.00;4.15;;;;;;;7.90;71.85;100012.81;1087871;31;20862;-78
2022/02/02 09:35:13;;;;;;;12.40;4.00;;;;;;;8.00;71.64;100020.03;1087663;54;20034;-81
2022/02/02 09:36:18;;;;;;;17.25;4.93;;;;;;;8.03;72.08;100027.75;1087653;54;20034;-78
2022/02/02 09:37:23;;;;;;;16.83;4.55;;;;;;;8.09;71.82;100028.06;1087604;54;20789;-77
2022/02/02 09:38:27;;;;;;;15.73;4.38;;;;;;;8.02;72.01;100023.41;1088593;39;20712;-77
2022/02/02 09:39:37;;;;;;;17.63;4.35;;;;;;;7.96;72.17;100020.28;1101516;31;20797;-78
2022/02/02 09:42:07;;;;;;;14.43;4.50;;;;;;;8.16;72.06;100028.41;1087115;54;20042;-79
2022/02/02 09:43:16;;;;;;;14.57;3.88;;;;;;;8.15;72.10;100025.88;1087559;54;20030;-77
2022/02/02 09:44:23;;;;;;;16.25;4.18;;;;;;;8.15;72.34;100034.69;1087448;54;20060;-78
2022/02/02 09:45:27;;;;;;;19.23;3.97;;;;;;;8.05;72.04;100028.44;1087427;54;20034;-78
2022/02/02 09:46:37;;;;;;;12.98;3.58;;;;;;;8.21;72.17;100039.53;1087570;54;20034;-76
2022/02/02 09:47:47;;;;;;;14.93;4.55;;;;;;;8.22;71.97;100030.53;1087396;54;20075;-76
2022/02/02 09:48:56;;;;;;;14.55;4.93;;;;;;;8.10;72.05;100036.91;1091216;39;20576;-78
2022/02/02 09:50:09;;;;;;;17.88;4.53;;;;;;;8.16;72.31;100039.06;1087424;54;20036;-77
2022/02/02 09:51:15;;;;;;;16.52;3.70;;;;;;;8.23;71.84;100039.38;1088734;46;20023;-76
2022/02/02 09:52:21;;;;;;;14.13;3.83;;;;;;;8.21;72.05;100044.00;1088556;46;20031;-81
2022/02/02 09:53:34;;;;;;;13.93;3.05;;;;;;;8.27;71.71;100046.97;1088008;54;20014;-78
2022/02/02 09:54:45;;;;;;;14.50;3.20;;;;;;;8.36;71.70;100053.34;1088315;54;20027;-81
2022/02/02 09:56:05;;;;;;;20.30;3.92;;;;;;;8.30;71.65;100056.53;1088035;54;20022;-81